createdAt,value
2022-12-20T00:01:32.714Z,11.80
2022-12-20T00:04:02.589Z,9.97
2022-12-20T00:06:29.917Z,9.33
2022-12-20T00:08:59.224Z,9.43
2022-12-20T00:11:27.759Z,8.20
2022-12-20T00:13:54.877Z,10.90
2022-12-20T00:16:24.835Z,10.73
2022-12-20T00:18:54.090Z,9.10
2022-12-20T00:21:21.464Z,9.37
2022-12-20T00:23:48.492Z,9.80
2022-12-20T00:26:20.742Z,12.03
2022-12-20T00:28:48.080Z,11.60
2022-12-20T00:31:17.312Z,11.10
2022-12-20T00:33:50.353Z,9.97
2022-12-20T00:36:18.791Z,10.20
2022-12-20T00:38:48.626Z,10.53
2022-12-20T00:41:21.572Z,10.53
2022-12-20T00:43:48.973Z,10.20
2022-12-20T00:46:17.985Z,11.07
2022-12-20T00:48:45.762Z,9.27
2022-12-20T00:51:19.548Z,9.93
2022-12-20T00:53:47.236Z,10.07
2022-12-20T00:56:14.952Z,10.90
2022-12-20T00:58:43.894Z,9.57
2022-12-20T01:01:25.894Z,9.33
2022-12-20T01:03:53.743Z,10.57
2022-12-20T01:06:21.830Z,10.07
2022-12-20T01:08:48.875Z,10.50
2022-12-20T01:11:19.424Z,9.93
2022-12-20T01:13:48.945Z,11.70
2022-12-20T01:16:19.844Z,12.23
2022-12-20T01:18:47.807Z,10.50
2022-12-20T01:21:16.807Z,11.07
2022-12-20T01:23:43.897Z,13.03
2022-12-20T01:26:14.127Z,11.30
2022-12-20T01:28:43.231Z,9.03
2022-12-20T01:31:13.113Z,9.20
2022-12-20T01:33:40.218Z,10.90
2022-12-20T01:36:11.349Z,10.30
2022-12-20T01:38:38.633Z,9.13
2022-12-20T01:41:05.955Z,8.83
2022-12-20T01:43:54.172Z,8.97
2022-12-20T01:46:24.330Z,8.50
2022-12-20T01:49:01.190Z,9.70
2022-12-20T01:51:32.265Z,9.82
2022-12-20T01:54:09.638Z,8.60
2022-12-20T01:56:40.581Z,9.80
2022-12-20T01:59:08.679Z,10.33
2022-12-20T02:01:36.169Z,8.97
2022-12-20T02:04:03.809Z,9.30
2022-12-20T02:06:30.864Z,9.30
2022-12-20T02:09:03.940Z,10.20
2022-12-20T02:12:02.457Z,9.43
2022-12-20T02:14:43.114Z,10.30
2022-12-20T02:17:16.480Z,8.77
2022-12-20T02:20:21.901Z,8.20
2022-12-20T02:23:00.632Z,8.93
2022-12-20T02:25:43.848Z,9.07
2022-12-20T02:28:47.305Z,10.63
2022-12-20T02:31:19.197Z,11.17
2022-12-20T02:33:48.954Z,10.63
2022-12-20T02:36:19.016Z,9.77
2022-12-20T02:38:49.541Z,9.20
2022-12-20T02:41:36.940Z,11.27
2022-12-20T02:44:31.140Z,10.10
2022-12-20T02:47:02.951Z,10.67
2022-12-20T02:49:34.580Z,10.80
2022-12-20T02:52:03.015Z,11.93
2022-12-20T02:54:30.356Z,11.90
2022-12-20T02:57:43.219Z,9.50
2022-12-20T03:00:16.712Z,9.00
2022-12-20T03:03:04.654Z,9.70
2022-12-20T03:05:35.159Z,11.10
2022-12-20T03:08:02.439Z,10.40
2022-12-20T03:10:30.099Z,11.63
2022-12-20T03:12:57.100Z,11.83
2022-12-20T03:15:24.377Z,10.80
2022-12-20T03:17:54.478Z,8.67
2022-12-20T03:20:22.691Z,12.40
2022-12-20T03:22:49.656Z,9.97
2022-12-20T03:25:17.442Z,11.50
2022-12-20T03:27:44.540Z,9.57
2022-12-20T03:30:12.632Z,11.00
2022-12-20T03:32:39.899Z,10.00
2022-12-20T03:35:09.019Z,11.17
2022-12-20T03:37:38.738Z,11.40
2022-12-20T03:40:07.695Z,10.50
2022-12-20T03:42:35.087Z,11.43
2022-12-20T03:45:02.835Z,10.83
2022-12-20T03:47:31.955Z,10.43
2022-12-20T03:49:58.961Z,10.07
2022-12-20T03:52:27.417Z,11.17
2022-12-20T03:54:54.459Z,9.70
2022-12-20T03:57:27.114Z,10.50
2022-12-20T03:59:55.163Z,12.30
2022-12-20T04:02:23.091Z,9.80
2022-12-20T04:04:51.131Z,10.97
2022-12-20T04:07:18.338Z,10.67
2022-12-20T04:09:47.265Z,11.27
2022-12-20T04:12:15.903Z,10.87
2022-12-20T04:14:43.683Z,12.00
2022-12-20T04:17:12.269Z,10.90
2022-12-20T04:19:39.937Z,13.70
2022-12-20T04:22:08.437Z,12.70
2022-12-20T04:24:47.079Z,12.63
2022-12-20T04:27:25.948Z,12.17
2022-12-20T04:29:55.259Z,13.50
2022-12-20T04:32:23.323Z,13.23
2022-12-20T04:34:50.291Z,13.97
2022-12-20T04:37:17.802Z,14.07
2022-12-20T04:39:49.682Z,13.53
2022-12-20T04:42:34.560Z,13.77
2022-12-20T04:45:01.594Z,13.83
2022-12-20T04:47:31.332Z,15.63
2022-12-20T04:49:58.491Z,15.10
2022-12-20T04:52:47.901Z,16.07
2022-12-20T04:55:16.292Z,15.17
2022-12-20T04:57:43.340Z,14.80
2022-12-20T05:00:12.026Z,15.47
2022-12-20T05:02:43.497Z,14.93
2022-12-20T05:05:14.304Z,13.73
2022-12-20T05:07:47.876Z,13.43
2022-12-20T05:10:14.865Z,16.03
2022-12-20T05:12:42.543Z,14.30
2022-12-20T05:15:14.881Z,15.03
2022-12-20T05:17:43.284Z,14.00
2022-12-20T05:20:12.369Z,15.53
2022-12-20T05:22:58.542Z,15.10
2022-12-20T05:25:44.093Z,14.13
2022-12-20T05:28:14.372Z,16.27
2022-12-20T05:30:41.364Z,13.23
2022-12-20T05:33:08.340Z,17.30
2022-12-20T05:35:35.331Z,13.47
2022-12-20T05:38:10.371Z,14.37
2022-12-20T05:40:39.912Z,14.33
2022-12-20T05:43:07.537Z,14.57
2022-12-20T05:45:52.983Z,14.63
2022-12-20T05:48:29.327Z,13.93
2022-12-20T05:50:56.644Z,13.60
2022-12-20T05:53:26.838Z,13.23
2022-12-20T05:55:57.682Z,13.20
2022-12-20T05:58:37.660Z,14.43
2022-12-20T06:01:08.073Z,14.43
2022-12-20T06:03:39.533Z,16.20
2022-12-20T06:06:15.731Z,13.83
2022-12-20T06:08:46.161Z,14.10
2022-12-20T06:11:25.768Z,15.20
2022-12-20T06:14:01.381Z,14.97
2022-12-20T06:16:28.880Z,13.37
2022-12-20T06:18:57.440Z,14.60
2022-12-20T06:21:24.643Z,14.87
2022-12-20T06:23:53.511Z,14.37
2022-12-20T06:26:23.453Z,15.30
2022-12-20T06:28:54.825Z,15.83
2022-12-20T06:31:26.094Z,12.60
2022-12-20T06:33:54.831Z,14.47
2022-12-20T06:36:23.926Z,15.93
2022-12-20T06:38:52.210Z,16.40
2022-12-20T06:41:19.600Z,13.63
2022-12-20T06:43:47.375Z,21.93
2022-12-20T06:46:14.714Z,13.77
2022-12-20T06:48:42.147Z,14.80
2022-12-20T06:51:11.295Z,19.03
2022-12-20T06:53:38.655Z,15.23
2022-12-20T06:56:06.056Z,12.37
2022-12-20T06:58:33.111Z,12.57
2022-12-20T07:01:00.894Z,12.73
2022-12-20T07:03:28.062Z,12.10
2022-12-20T07:05:55.612Z,14.37
2022-12-20T07:08:23.267Z,11.90
2022-12-20T07:10:52.806Z,12.80
2022-12-20T07:13:20.298Z,10.97
2022-12-20T07:15:47.297Z,10.90
2022-12-20T07:18:14.610Z,10.63
2022-12-20T07:20:41.691Z,11.10
2022-12-20T07:23:08.670Z,12.43
2022-12-20T07:25:35.740Z,10.97
2022-12-20T07:28:03.298Z,12.30
2022-12-20T07:30:31.402Z,11.83
2022-12-20T07:32:59.384Z,11.40
2022-12-20T07:35:26.831Z,10.83
2022-12-20T07:37:53.795Z,9.83
2022-12-20T07:40:20.895Z,9.17
2022-12-20T07:42:49.086Z,11.83
2022-12-20T07:45:16.507Z,10.50
2022-12-20T07:47:44.076Z,11.10
2022-12-20T07:50:11.975Z,8.07
2022-12-20T07:52:43.100Z,11.97
2022-12-20T07:55:12.211Z,9.60
2022-12-20T07:57:51.711Z,9.60
2022-12-20T08:00:19.161Z,7.87
2022-12-20T08:02:57.966Z,7.07
2022-12-20T08:05:26.186Z,9.23
2022-12-20T08:07:59.394Z,7.67
2022-12-20T08:10:27.925Z,9.00
2022-12-20T08:12:55.585Z,8.73
2022-12-20T08:15:23.287Z,9.70
2022-12-20T08:17:50.610Z,9.10
2022-12-20T08:20:18.210Z,10.13
2022-12-20T08:22:45.358Z,7.53
2022-12-20T08:25:12.625Z,8.10
2022-12-20T08:27:39.980Z,7.77
2022-12-20T08:30:08.569Z,8.17
2022-12-20T08:32:36.454Z,7.73
2022-12-20T08:35:04.954Z,7.60
2022-12-20T08:37:32.021Z,8.27
2022-12-20T08:39:59.127Z,8.67
2022-12-20T08:42:26.093Z,8.23
2022-12-20T08:44:53.126Z,10.07
2022-12-20T08:47:20.079Z,9.17
2022-12-20T08:49:48.013Z,8.87
2022-12-20T08:52:15.676Z,7.37
2022-12-20T08:54:42.689Z,7.27
2022-12-20T08:57:09.675Z,7.40
2022-12-20T08:59:36.643Z,7.03
2022-12-20T09:02:03.855Z,8.13
2022-12-20T09:04:31.098Z,9.07
2022-12-20T09:06:58.054Z,7.30
2022-12-20T09:09:25.029Z,8.73
2022-12-20T09:11:52.069Z,7.90
2022-12-20T09:14:19.240Z,6.30
2022-12-20T09:16:46.191Z,7.33
2022-12-20T09:19:14.757Z,12.13
2022-12-20T09:21:41.951Z,10.73
2022-12-20T09:24:10.260Z,7.37
2022-12-20T09:26:37.423Z,8.67
2022-12-20T09:29:05.476Z,6.83
2022-12-20T09:31:32.600Z,7.93
2022-12-20T09:33:59.849Z,7.53
2022-12-20T09:36:29.730Z,8.93
2022-12-20T09:38:57.662Z,9.43
2022-12-20T09:41:33.675Z,8.00
2022-12-20T09:44:11.076Z,7.80
2022-12-20T09:46:40.132Z,6.80
2022-12-20T09:49:07.419Z,8.50
2022-12-20T09:51:49.560Z,8.77
2022-12-20T09:54:19.283Z,7.97
2022-12-20T09:57:22.700Z,7.57
2022-12-20T09:59:50.228Z,8.87
2022-12-20T10:05:26.061Z,8.03
2022-12-20T10:07:58.545Z,9.27
2022-12-20T10:10:25.672Z,9.10
2022-12-20T10:13:15.686Z,9.60
2022-12-20T10:15:58.730Z,8.53
2022-12-20T10:18:39.467Z,8.47
2022-12-20T10:21:15.207Z,9.50
2022-12-20T10:24:30.564Z,7.43
2022-12-20T10:27:12.791Z,10.23
2022-12-20T10:29:41.060Z,8.40
2022-12-20T10:32:21.207Z,7.37
2022-12-20T10:35:00.133Z,7.80
2022-12-20T10:37:27.415Z,8.47
2022-12-20T10:39:54.473Z,7.47
2022-12-20T10:42:40.811Z,7.60
2022-12-20T10:45:35.673Z,7.47
2022-12-20T10:48:07.055Z,8.70
2022-12-20T10:50:34.466Z,7.40
2022-12-20T10:53:13.559Z,7.00
2022-12-20T10:55:42.549Z,7.67
2022-12-20T10:58:21.885Z,6.80
2022-12-20T11:00:49.888Z,7.70
2022-12-20T11:03:22.605Z,7.93
2022-12-20T11:06:17.195Z,6.83
2022-12-20T11:08:52.523Z,7.77
2022-12-20T11:11:25.232Z,7.93
2022-12-20T11:13:52.870Z,7.20
2022-12-20T11:16:36.993Z,9.97
2022-12-20T11:19:07.004Z,7.33
2022-12-20T11:22:08.059Z,6.97
2022-12-20T11:24:59.935Z,8.43
2022-12-20T11:28:05.329Z,6.90
2022-12-20T11:31:01.914Z,9.77
2022-12-20T11:33:47.470Z,11.77
2022-12-20T11:36:33.204Z,8.20
2022-12-20T11:39:19.734Z,8.60
2022-12-20T11:41:59.428Z,9.03
2022-12-20T11:44:53.977Z,8.03
2022-12-20T11:47:59.305Z,8.47
2022-12-20T11:51:08.655Z,8.03
2022-12-20T11:54:08.577Z,8.30
2022-12-20T11:56:44.527Z,9.17
2022-12-20T11:59:42.884Z,7.93
2022-12-20T12:02:14.808Z,7.22
2022-12-20T12:04:47.504Z,9.07
2022-12-20T12:07:21.808Z,8.83
2022-12-20T12:09:57.941Z,9.40
2022-12-20T12:12:34.218Z,10.48
2022-12-20T12:15:17.341Z,9.90
2022-12-20T12:18:05.573Z,10.50
2022-12-20T12:20:45.147Z,12.30
2022-12-20T12:23:35.556Z,10.40
2022-12-20T12:26:40.477Z,11.03
2022-12-20T12:29:12.723Z,11.83
2022-12-20T12:31:43.891Z,11.13
2022-12-20T12:34:52.143Z,12.87
2022-12-20T12:37:43.237Z,10.40
2022-12-20T12:40:19.350Z,10.73
2022-12-20T12:43:01.257Z,9.97
2022-12-20T12:45:31.743Z,12.77
2022-12-20T12:48:12.657Z,12.43
2022-12-20T12:50:46.158Z,9.47
2022-12-20T12:53:15.189Z,10.93
2022-12-20T12:55:48.599Z,11.47
2022-12-20T12:58:36.072Z,9.80
2022-12-20T13:01:12.912Z,10.35
2022-12-20T13:06:35.685Z,8.80
2022-12-20T13:09:03.703Z,10.37
2022-12-20T13:11:36.111Z,8.30
2022-12-20T13:14:18.406Z,8.87
2022-12-20T13:17:11.570Z,10.30
2022-12-20T13:19:36.331Z,9.83
2022-12-20T13:22:06.271Z,8.60
2022-12-20T13:24:50.901Z,8.63
2022-12-20T13:27:27.288Z,10.00
2022-12-20T13:29:56.663Z,9.50
2022-12-20T13:32:48.649Z,9.87
2022-12-20T13:35:24.615Z,9.67
2022-12-20T13:38:12.707Z,8.85
2022-12-20T13:40:52.769Z,8.37
2022-12-20T13:43:19.700Z,9.80
2022-12-20T13:45:50.999Z,9.37
2022-12-20T13:48:24.057Z,10.13
2022-12-20T13:50:56.210Z,10.53
2022-12-20T13:53:27.307Z,6.50
2022-12-20T13:55:55.567Z,9.57
2022-12-20T13:58:26.991Z,10.70
2022-12-20T14:01:00.958Z,13.67
2022-12-20T14:03:30.998Z,8.10
2022-12-20T14:06:02.839Z,8.87
2022-12-20T14:08:36.638Z,9.63
2022-12-20T14:11:12.547Z,9.00
2022-12-20T14:13:40.343Z,8.77
2022-12-20T14:16:14.897Z,12.87
2022-12-20T14:18:42.620Z,10.17
2022-12-20T14:21:10.610Z,8.77
2022-12-20T14:23:47.980Z,9.63
2022-12-20T14:26:22.451Z,9.00
2022-12-20T14:28:55.525Z,8.63
2022-12-20T14:31:37.436Z,10.80
2022-12-20T14:34:16.488Z,11.27
2022-12-20T14:36:46.166Z,9.60
2022-12-20T14:39:26.531Z,10.07
2022-12-20T14:42:01.797Z,9.30
2022-12-20T14:44:32.516Z,10.20
2022-12-20T14:47:28.636Z,11.87
2022-12-20T14:49:59.207Z,9.87
2022-12-20T14:52:29.202Z,8.50
2022-12-20T14:55:11.932Z,10.60
2022-12-20T14:57:46.430Z,9.63
2022-12-20T15:00:19.579Z,9.50
2022-12-20T15:03:01.928Z,10.33
2022-12-20T15:05:35.422Z,9.67
2022-12-20T15:08:22.706Z,10.27
2022-12-20T15:10:57.584Z,11.20
2022-12-20T15:13:37.219Z,10.13
2022-12-20T15:16:20.013Z,8.40
2022-12-20T15:18:48.984Z,10.60
2022-12-20T15:21:38.601Z,10.00
2022-12-20T15:24:10.354Z,10.93
2022-12-20T15:26:37.868Z,11.17
2022-12-20T15:29:05.715Z,10.63
2022-12-20T15:31:36.770Z,10.83
2022-12-20T15:34:12.103Z,10.20
2022-12-20T15:36:39.149Z,10.30
2022-12-20T15:39:14.132Z,8.43
2022-12-20T15:41:46.444Z,10.33
2022-12-20T15:44:17.420Z,10.20
2022-12-20T15:46:44.876Z,10.83
2022-12-20T15:49:17.157Z,11.60
2022-12-20T15:51:46.844Z,11.50
2022-12-20T15:54:35.887Z,10.77
2022-12-20T15:57:09.437Z,9.87
2022-12-20T16:02:26.713Z,10.77
2022-12-20T16:04:55.432Z,12.00
2022-12-20T16:07:23.704Z,11.93
2022-12-20T16:09:50.908Z,11.93
2022-12-20T16:12:32.543Z,13.80
2022-12-20T16:14:59.618Z,12.67
2022-12-20T16:17:26.671Z,10.17
2022-12-20T16:19:53.717Z,12.80
2022-12-20T16:22:22.880Z,13.27
2022-12-20T16:24:50.275Z,11.97
2022-12-20T16:27:17.709Z,11.57
2022-12-20T16:29:45.650Z,13.90
2022-12-20T16:32:18.492Z,11.93
2022-12-20T16:34:46.334Z,13.33
2022-12-20T16:37:13.443Z,14.33
2022-12-20T16:39:41.155Z,12.73
2022-12-20T16:42:16.164Z,13.83
2022-12-20T16:44:45.507Z,18.43
2022-12-20T16:47:13.961Z,13.93
2022-12-20T16:49:47.348Z,14.23
2022-12-20T16:52:19.252Z,11.40
2022-12-20T16:54:46.327Z,12.03
2022-12-20T16:57:13.278Z,14.00
2022-12-20T16:59:40.236Z,12.33
2022-12-20T17:02:29.819Z,13.33
2022-12-20T17:04:57.008Z,15.60
2022-12-20T17:07:24.376Z,13.67
2022-12-20T17:09:52.117Z,14.40
2022-12-20T17:12:21.355Z,14.33
2022-12-20T17:14:49.428Z,12.70
2022-12-20T17:17:17.594Z,14.67
2022-12-20T17:19:44.993Z,12.73
2022-12-20T17:22:25.073Z,12.23
2022-12-20T17:24:52.150Z,15.27
2022-12-20T17:27:19.168Z,12.80
2022-12-20T17:29:46.209Z,13.50
2022-12-20T17:32:25.881Z,11.57
2022-12-20T17:34:53.790Z,13.90
2022-12-20T17:37:21.663Z,12.13
2022-12-20T17:39:49.048Z,11.77
2022-12-20T17:42:17.178Z,10.10
2022-12-20T17:44:46.382Z,12.27
2022-12-20T17:47:13.724Z,13.23
2022-12-20T17:49:40.832Z,13.93
2022-12-20T17:52:15.647Z,10.50
2022-12-20T17:54:43.024Z,13.73
2022-12-20T17:57:16.390Z,10.57
2022-12-20T17:59:43.949Z,14.37
2022-12-20T18:02:21.545Z,13.37
2022-12-20T18:04:49.018Z,14.70
2022-12-20T18:07:16.198Z,12.80
2022-12-20T18:09:43.172Z,11.47
2022-12-20T18:12:11.045Z,11.70
2022-12-20T18:14:38.129Z,14.00
2022-12-20T18:17:05.271Z,14.60
2022-12-20T18:19:32.411Z,13.03
2022-12-20T18:22:00.221Z,12.43
2022-12-20T18:24:27.633Z,13.53
2022-12-20T18:26:54.720Z,15.60
2022-12-20T18:29:21.701Z,13.27
2022-12-20T18:31:48.726Z,13.23
2022-12-20T18:34:15.722Z,14.00
2022-12-20T18:36:42.780Z,15.37
2022-12-20T18:39:13.082Z,16.70
2022-12-20T18:41:43.074Z,19.77
2022-12-20T18:44:11.823Z,19.73
2022-12-20T18:46:39.305Z,15.07
2022-12-20T18:49:06.565Z,14.03
2022-12-20T18:51:38.407Z,16.87
2022-12-20T18:54:08.036Z,13.87
2022-12-20T18:56:37.406Z,12.97
2022-12-20T18:59:11.485Z,16.27
2022-12-20T19:01:40.560Z,16.33
2022-12-20T19:04:08.488Z,16.40
2022-12-20T19:06:36.960Z,14.07
2022-12-20T19:09:06.981Z,16.73
2022-12-20T19:11:34.419Z,15.33
2022-12-20T19:14:01.423Z,14.80
2022-12-20T19:16:32.120Z,15.63
2022-12-20T19:19:01.100Z,12.70
2022-12-20T19:21:33.740Z,14.63
2022-12-20T19:24:05.207Z,13.90
2022-12-20T19:26:32.816Z,14.50
2022-12-20T19:29:00.196Z,16.73
2022-12-20T19:31:29.975Z,16.80
2022-12-20T19:34:00.161Z,17.63
2022-12-20T19:36:32.634Z,17.43
2022-12-20T19:39:01.516Z,17.17
2022-12-20T19:41:31.075Z,15.40
2022-12-20T19:43:58.569Z,17.33
2022-12-20T19:46:29.436Z,16.60
2022-12-20T19:48:58.605Z,14.83
2022-12-20T19:51:27.600Z,16.90
2022-12-20T19:53:56.010Z,13.70
2022-12-20T19:56:26.444Z,16.40
2022-12-20T19:58:55.372Z,18.60
2022-12-20T20:01:26.037Z,15.57
2022-12-20T20:03:55.551Z,15.60
2022-12-20T20:06:23.361Z,16.47
2022-12-20T20:08:50.561Z,17.97
2022-12-20T20:11:19.235Z,17.87
2022-12-20T20:13:46.725Z,21.90
2022-12-20T20:16:20.019Z,19.30
2022-12-20T20:18:49.357Z,20.53
2022-12-20T20:21:21.370Z,22.13
2022-12-20T20:23:50.684Z,21.30
2022-12-20T20:26:20.888Z,20.97
2022-12-20T20:28:48.070Z,22.27
2022-12-20T20:31:17.288Z,20.93
2022-12-20T20:33:44.592Z,20.93
2022-12-20T20:36:17.443Z,18.43
2022-12-20T20:38:44.648Z,21.83
2022-12-20T20:41:12.109Z,21.97
2022-12-20T20:43:39.075Z,26.07
2022-12-20T20:46:07.856Z,23.17
2022-12-20T20:48:35.530Z,20.93
2022-12-20T20:51:02.660Z,22.10
2022-12-20T20:53:33.924Z,22.50
2022-12-20T20:56:02.966Z,22.77
2022-12-20T20:58:31.034Z,22.63
2022-12-20T21:01:00.784Z,24.60
2022-12-20T21:03:28.898Z,24.50
2022-12-20T21:08:43.816Z,18.75
2022-12-20T21:11:12.212Z,21.13
2022-12-20T21:13:39.453Z,21.33
2022-12-20T21:16:11.898Z,22.17
2022-12-20T21:18:39.175Z,20.20
2022-12-20T21:21:11.219Z,20.47
2022-12-20T21:23:39.360Z,17.07
2022-12-20T21:26:07.761Z,20.53
2022-12-20T21:28:35.805Z,16.90
2022-12-20T21:31:05.688Z,20.77
2022-12-20T21:33:33.037Z,16.30
2022-12-20T21:36:06.191Z,18.57
2022-12-20T21:38:33.888Z,22.73
2022-12-20T21:41:05.310Z,22.90
2022-12-20T21:43:32.764Z,21.83
2022-12-20T21:46:00.449Z,21.17
2022-12-20T21:48:27.827Z,18.90
2022-12-20T21:51:03.364Z,20.23
2022-12-20T21:53:31.637Z,20.37
2022-12-20T21:56:00.356Z,21.10
2022-12-20T21:58:29.308Z,19.33
2022-12-20T22:00:57.488Z,20.00
2022-12-20T22:03:25.742Z,20.33
2022-12-20T22:05:55.051Z,19.53
2022-12-20T22:08:23.039Z,18.73
2022-12-20T22:11:01.912Z,20.73
2022-12-20T22:13:33.108Z,21.43
2022-12-20T22:16:13.143Z,19.73
2022-12-20T22:18:40.863Z,24.60
2022-12-20T22:21:10.938Z,23.20
2022-12-20T22:23:38.215Z,23.40
2022-12-20T22:26:08.601Z,22.77
2022-12-20T22:28:36.490Z,21.30
2022-12-20T22:31:11.188Z,22.87
2022-12-20T22:33:38.332Z,21.20
2022-12-20T22:36:06.597Z,21.17
2022-12-20T22:38:34.155Z,19.87
2022-12-20T22:41:26.619Z,23.30
2022-12-20T22:43:54.452Z,22.50
2022-12-20T22:46:22.042Z,22.43
2022-12-20T22:48:49.397Z,23.90
2022-12-20T22:51:20.167Z,20.67
2022-12-20T22:53:49.272Z,21.37
2022-12-20T22:56:17.861Z,23.33
2022-12-20T22:58:45.325Z,23.47
2022-12-20T23:01:14.054Z,22.37
2022-12-20T23:03:41.781Z,26.30
2022-12-20T23:06:12.502Z,24.53
2022-12-20T23:08:40.027Z,25.17
2022-12-20T23:11:39.936Z,21.60
2022-12-20T23:14:30.572Z,21.73
2022-12-20T23:16:58.029Z,24.37
2022-12-20T23:19:25.162Z,24.80
2022-12-20T23:22:10.936Z,24.47
2022-12-20T23:24:37.970Z,23.60
2022-12-20T23:27:04.940Z,22.47
2022-12-20T23:29:32.025Z,25.50
2022-12-20T23:31:59.266Z,23.93
2022-12-20T23:34:26.333Z,25.67
2022-12-20T23:36:53.528Z,23.87
2022-12-20T23:39:20.617Z,22.03
2022-12-20T23:41:47.616Z,22.00
2022-12-20T23:44:14.617Z,26.53
2022-12-20T23:46:41.599Z,27.90
2022-12-20T23:49:09.060Z,24.70
2022-12-20T23:51:36.054Z,21.70
2022-12-20T23:54:03.152Z,25.60
2022-12-20T23:56:30.156Z,24.27
2022-12-20T23:58:57.891Z,25.70
